createdAt,value
2023-05-10T00:00:32.715Z,7.59
2023-05-10T00:03:11.238Z,7.55
2023-05-10T00:05:39.520Z,7.54
2023-05-10T00:08:07.691Z,7.52
2023-05-10T00:10:35.769Z,7.51
2023-05-10T00:13:03.839Z,7.47
2023-05-10T00:15:31.951Z,7.47
2023-05-10T00:18:00.091Z,7.44
2023-05-10T00:20:28.158Z,7.44
2023-05-10T00:22:56.139Z,7.42
2023-05-10T00:25:24.251Z,7.41
2023-05-10T00:27:53.260Z,7.40
2023-05-10T00:30:21.416Z,7.38
2023-05-10T00:32:50.950Z,7.37
2023-05-10T00:35:18.975Z,7.37
2023-05-10T00:37:46.898Z,7.36
2023-05-10T00:40:15.397Z,7.34
2023-05-10T00:42:44.977Z,7.31
2023-05-10T00:45:13.039Z,7.30
2023-05-10T00:47:41.820Z,7.28
2023-05-10T00:50:10.724Z,7.25
2023-05-10T00:52:38.892Z,7.23
2023-05-10T00:55:12.539Z,7.23
2023-05-10T00:57:40.938Z,7.23
2023-05-10T01:00:09.314Z,7.21
2023-05-10T01:02:37.334Z,7.19
2023-05-10T01:05:06.411Z,7.17
2023-05-10T01:07:34.411Z,7.13
2023-05-10T01:10:02.529Z,7.06
2023-05-10T01:12:31.449Z,7.00
2023-05-10T01:15:01.061Z,6.93
2023-05-10T01:17:29.119Z,6.88
2023-05-10T01:19:57.126Z,6.84
2023-05-10T01:23:11.858Z,6.79
2023-05-10T01:26:04.388Z,6.73
2023-05-10T01:28:47.508Z,6.70
2023-05-10T01:32:01.654Z,6.66
2023-05-10T01:34:43.742Z,6.61
2023-05-10T01:37:26.371Z,6.57
2023-05-10T01:40:20.886Z,6.53
2023-05-10T01:42:53.457Z,6.46
2023-05-10T01:45:29.996Z,6.43
2023-05-10T01:48:06.763Z,6.37
2023-05-10T01:50:38.588Z,6.35
2023-05-10T01:53:09.527Z,6.33
2023-05-10T01:55:47.537Z,6.31
2023-05-10T01:58:21.402Z,6.29
2023-05-10T02:00:51.620Z,6.31
2023-05-10T02:03:24.672Z,6.31
2023-05-10T02:05:54.602Z,6.28
2023-05-10T02:08:24.332Z,6.26
2023-05-10T02:10:54.687Z,6.23
2023-05-10T02:13:25.661Z,6.16
2023-05-10T02:15:56.119Z,6.11
2023-05-10T02:18:26.935Z,6.10
2023-05-10T02:20:56.507Z,6.11
2023-05-10T02:23:26.178Z,6.09
2023-05-10T02:25:56.291Z,6.05
2023-05-10T02:28:27.017Z,6.01
2023-05-10T02:30:56.327Z,5.97
2023-05-10T02:33:25.462Z,5.92
2023-05-10T02:35:55.634Z,5.89
2023-05-10T02:38:24.324Z,5.89
2023-05-10T02:40:53.543Z,5.89
2023-05-10T02:43:24.319Z,5.94
2023-05-10T02:45:52.489Z,6.00
2023-05-10T02:48:20.473Z,6.07
2023-05-10T02:50:53.680Z,6.10
2023-05-10T02:53:32.944Z,6.09
2023-05-10T02:56:05.394Z,6.08
2023-05-10T02:58:33.325Z,6.05
2023-05-10T03:01:01.436Z,6.03
2023-05-10T03:03:29.599Z,5.99
2023-05-10T03:05:59.013Z,5.96
2023-05-10T03:08:27.339Z,5.91
2023-05-10T03:11:18.181Z,5.88
2023-05-10T03:13:50.018Z,5.83
2023-05-10T03:16:28.723Z,5.80
2023-05-10T03:19:14.549Z,5.78
2023-05-10T03:21:46.208Z,5.73
2023-05-10T03:24:16.688Z,5.69
2023-05-10T03:26:46.777Z,5.70
2023-05-10T03:29:19.145Z,5.73
2023-05-10T03:31:47.438Z,5.76
2023-05-10T03:34:15.946Z,5.79
2023-05-10T03:36:43.921Z,5.82
2023-05-10T03:39:11.969Z,5.83
2023-05-10T03:41:39.928Z,5.84
2023-05-10T03:44:07.926Z,5.84
2023-05-10T03:46:35.876Z,5.86
2023-05-10T03:49:04.501Z,5.86
2023-05-10T03:51:32.998Z,5.88
2023-05-10T03:54:00.952Z,5.89
2023-05-10T03:56:29.371Z,5.92
2023-05-10T03:58:57.446Z,5.93
2023-05-10T04:01:25.399Z,5.95
2023-05-10T04:03:53.502Z,5.97
2023-05-10T04:06:21.526Z,6.01
2023-05-10T04:08:50.073Z,6.08
2023-05-10T04:11:18.092Z,6.15
2023-05-10T04:13:46.008Z,6.24
2023-05-10T04:16:14.076Z,6.31
2023-05-10T04:18:42.091Z,6.38
2023-05-10T04:21:13.826Z,6.47
2023-05-10T04:23:42.231Z,6.54
2023-05-10T04:26:10.161Z,6.64
2023-05-10T04:28:38.144Z,6.75
2023-05-10T04:31:07.926Z,6.81
2023-05-10T04:33:36.692Z,7.01
2023-05-10T04:36:05.016Z,7.36
2023-05-10T04:38:32.929Z,7.79
2023-05-10T04:41:11.550Z,8.27
2023-05-10T04:43:39.666Z,8.75
2023-05-10T04:46:08.696Z,9.09
2023-05-10T04:48:36.826Z,9.38
2023-05-10T04:51:05.200Z,9.61
2023-05-10T04:53:33.764Z,9.77
2023-05-10T04:56:01.926Z,9.88
2023-05-10T04:58:29.899Z,9.96
2023-05-10T05:00:57.991Z,10.13
2023-05-10T05:03:26.060Z,10.22
2023-05-10T05:05:54.065Z,10.37
2023-05-10T05:08:22.183Z,10.41
2023-05-10T05:10:51.462Z,10.52
2023-05-10T05:13:19.791Z,10.59
2023-05-10T05:15:47.958Z,10.66
2023-05-10T05:18:16.051Z,10.78
2023-05-10T05:20:44.111Z,10.89
2023-05-10T05:23:12.109Z,10.97
2023-05-10T05:25:39.986Z,11.08
2023-05-10T05:28:07.955Z,11.18
2023-05-10T05:30:35.902Z,11.17
2023-05-10T05:33:04.137Z,11.28
2023-05-10T05:35:32.149Z,11.38
2023-05-10T05:38:00.181Z,11.40
2023-05-10T05:40:28.165Z,11.39
2023-05-10T05:42:56.448Z,11.45
2023-05-10T05:45:24.422Z,11.34
2023-05-10T05:47:52.533Z,11.16
2023-05-10T05:50:20.424Z,10.91
2023-05-10T05:52:48.265Z,10.72
2023-05-10T05:55:16.348Z,10.58
2023-05-10T05:57:44.458Z,10.51
2023-05-10T06:00:12.863Z,10.46
2023-05-10T06:02:41.014Z,10.40
2023-05-10T06:05:09.600Z,10.39
2023-05-10T06:07:37.621Z,10.47
2023-05-10T06:10:06.999Z,10.52
2023-05-10T06:12:35.086Z,10.54
2023-05-10T06:15:03.953Z,10.59
2023-05-10T06:17:32.101Z,10.67
2023-05-10T06:20:00.145Z,10.76
2023-05-10T06:22:28.798Z,10.87
2023-05-10T06:24:56.689Z,11.00
2023-05-10T06:27:24.594Z,11.09
2023-05-10T06:29:59.280Z,11.16
2023-05-10T06:32:33.676Z,11.18
2023-05-10T06:35:01.750Z,11.26
2023-05-10T06:37:29.636Z,11.34
2023-05-10T06:39:57.511Z,11.43
2023-05-10T06:42:26.549Z,11.49
2023-05-10T06:44:54.509Z,11.56
2023-05-10T06:47:23.243Z,11.64
2023-05-10T06:49:51.129Z,11.70
2023-05-10T06:52:19.082Z,11.75
2023-05-10T06:54:46.936Z,11.83
2023-05-10T06:57:30.030Z,11.93
2023-05-10T06:59:59.937Z,12.01
2023-05-10T07:02:28.283Z,12.12
2023-05-10T07:04:57.933Z,12.26
2023-05-10T07:07:26.828Z,12.38
2023-05-10T07:09:54.770Z,12.50
2023-05-10T07:12:22.768Z,12.61
2023-05-10T07:14:50.739Z,12.75
2023-05-10T07:17:18.770Z,12.87
2023-05-10T07:19:46.852Z,12.94
2023-05-10T07:22:14.762Z,13.02
2023-05-10T07:24:42.790Z,13.11
2023-05-10T07:27:10.807Z,13.19
2023-05-10T07:29:38.742Z,13.28
2023-05-10T07:32:07.127Z,13.40
2023-05-10T07:34:35.357Z,13.56
2023-05-10T07:37:03.301Z,13.67
2023-05-10T07:39:31.254Z,13.77
2023-05-10T07:41:59.355Z,13.86
2023-05-10T07:44:27.216Z,13.97
2023-05-10T07:46:55.177Z,14.08
2023-05-10T07:49:25.219Z,14.20
2023-05-10T07:51:53.288Z,14.31
2023-05-10T07:54:21.635Z,14.41
2023-05-10T07:56:49.583Z,14.48
2023-05-10T07:59:18.748Z,14.57
2023-05-10T08:01:46.724Z,14.71
2023-05-10T08:04:14.707Z,14.85
2023-05-10T08:06:42.830Z,14.92
2023-05-10T08:09:12.020Z,14.97
2023-05-10T08:11:40.019Z,15.09
2023-05-10T08:14:08.017Z,15.20
2023-05-10T08:16:36.106Z,15.29
2023-05-10T08:19:04.331Z,15.40
2023-05-10T08:21:32.461Z,15.51
2023-05-10T08:24:00.377Z,15.60
2023-05-10T08:26:28.339Z,15.66
2023-05-10T08:28:56.239Z,15.75
2023-05-10T08:31:24.403Z,15.86
2023-05-10T08:33:53.790Z,15.94
2023-05-10T08:36:23.003Z,16.07
2023-05-10T08:38:56.007Z,16.14
2023-05-10T08:41:26.974Z,16.23
2023-05-10T08:43:55.813Z,16.34
2023-05-10T08:46:24.247Z,16.48
2023-05-10T08:48:53.285Z,16.56
2023-05-10T08:51:27.735Z,16.63
2023-05-10T08:53:56.447Z,16.77
2023-05-10T08:56:25.272Z,16.87
2023-05-10T08:58:53.669Z,16.89
2023-05-10T09:01:22.512Z,16.93
2023-05-10T09:03:51.649Z,16.99
2023-05-10T09:06:19.797Z,17.04
2023-05-10T09:08:48.888Z,17.08
2023-05-10T09:11:18.448Z,17.06
2023-05-10T09:13:48.948Z,17.11
2023-05-10T09:16:21.737Z,17.21
2023-05-10T09:18:50.777Z,17.37
2023-05-10T09:21:21.019Z,17.51
2023-05-10T09:23:51.372Z,17.61
2023-05-10T09:26:24.279Z,17.70
2023-05-10T09:28:53.644Z,17.82
2023-05-10T09:31:21.770Z,17.91
2023-05-10T09:33:50.880Z,18.00
2023-05-10T09:36:18.946Z,18.00
2023-05-10T09:38:52.811Z,18.01
2023-05-10T09:41:22.895Z,18.10
2023-05-10T09:43:52.470Z,18.19
2023-05-10T09:46:20.660Z,18.31
2023-05-10T09:48:49.365Z,18.48
2023-05-10T09:51:36.963Z,18.66
2023-05-10T09:54:17.694Z,18.79
2023-05-10T09:56:46.000Z,18.90
2023-05-10T09:59:14.111Z,18.98
2023-05-10T10:01:42.382Z,19.08
2023-05-10T10:04:12.177Z,19.18
2023-05-10T10:06:41.008Z,19.17
2023-05-10T10:09:10.609Z,19.26
2023-05-10T10:11:40.182Z,19.34
2023-05-10T10:14:08.097Z,19.45
2023-05-10T10:16:36.091Z,19.51
2023-05-10T10:19:04.258Z,19.48
2023-05-10T10:21:33.774Z,19.53
2023-05-10T10:24:02.362Z,19.60
2023-05-10T10:26:30.355Z,19.65
2023-05-10T10:29:05.676Z,19.69
2023-05-10T10:32:04.189Z,19.69
2023-05-10T10:34:33.158Z,19.68
2023-05-10T10:37:06.526Z,19.65
2023-05-10T10:39:37.837Z,19.71
2023-05-10T10:42:06.286Z,19.77
2023-05-10T10:44:34.933Z,19.78
2023-05-10T10:47:09.477Z,19.77
2023-05-10T10:49:46.794Z,19.60
2023-05-10T10:52:36.809Z,19.38
2023-05-10T10:55:05.292Z,19.39
2023-05-10T10:58:01.649Z,19.58
2023-05-10T11:00:32.193Z,19.81
2023-05-10T11:03:09.762Z,19.97
2023-05-10T11:05:42.912Z,20.24
2023-05-10T11:08:13.845Z,20.34
2023-05-10T11:10:54.088Z,20.30
2023-05-10T11:13:32.312Z,20.36
2023-05-10T11:16:11.643Z,20.46
2023-05-10T11:18:39.847Z,20.54
2023-05-10T11:21:11.677Z,20.70
2023-05-10T11:23:50.267Z,20.76
2023-05-10T11:26:19.808Z,20.84
2023-05-10T11:28:49.902Z,20.93
2023-05-10T11:31:18.921Z,21.03
2023-05-10T11:33:51.675Z,21.15
2023-05-10T11:36:22.253Z,21.14
2023-05-10T11:38:50.182Z,21.24
2023-05-10T11:41:20.135Z,21.39
2023-05-10T11:43:50.511Z,21.57
2023-05-10T11:46:21.503Z,21.74
2023-05-10T11:48:59.859Z,21.77
2023-05-10T11:51:28.226Z,21.75
2023-05-10T11:53:58.058Z,21.80
2023-05-10T11:56:27.955Z,21.84
2023-05-10T11:58:58.501Z,21.91
2023-05-10T12:01:28.212Z,21.81
2023-05-10T12:04:00.877Z,21.84
2023-05-10T12:06:32.298Z,21.80
2023-05-10T12:09:00.678Z,21.81
2023-05-10T12:11:29.722Z,21.98
2023-05-10T12:13:57.826Z,22.23
2023-05-10T12:16:29.487Z,22.33
2023-05-10T12:18:59.985Z,22.39
2023-05-10T12:21:31.677Z,22.42
2023-05-10T12:24:04.424Z,22.48
2023-05-10T12:26:33.147Z,22.56
2023-05-10T12:29:18.609Z,22.69
2023-05-10T12:31:59.830Z,22.79
2023-05-10T12:34:32.507Z,22.81
2023-05-10T12:37:01.858Z,22.90
2023-05-10T12:39:47.252Z,22.99
2023-05-10T12:42:15.279Z,23.09
2023-05-10T12:44:43.262Z,23.00
2023-05-10T12:47:11.928Z,22.98
2023-05-10T12:49:39.891Z,23.16
2023-05-10T12:52:07.813Z,23.13
2023-05-10T12:54:36.650Z,23.19
2023-05-10T12:57:04.625Z,23.12
2023-05-10T12:59:32.609Z,23.07
2023-05-10T13:02:00.625Z,23.24
2023-05-10T13:04:28.660Z,23.38
2023-05-10T13:07:00.056Z,23.47
2023-05-10T13:09:30.771Z,23.56
2023-05-10T13:11:58.861Z,23.53
2023-05-10T13:14:26.982Z,23.43
2023-05-10T13:16:55.257Z,23.45
2023-05-10T13:19:23.240Z,23.47
2023-05-10T13:21:51.260Z,23.54
2023-05-10T13:24:19.270Z,23.58
2023-05-10T13:26:47.261Z,23.62
2023-05-10T13:29:16.895Z,23.78
2023-05-10T13:31:45.020Z,23.78
2023-05-10T13:34:12.975Z,23.87
2023-05-10T13:36:40.966Z,23.94
2023-05-10T13:39:09.578Z,23.87
2023-05-10T13:41:38.179Z,23.64
2023-05-10T13:44:06.171Z,23.64
2023-05-10T13:46:34.170Z,23.46
2023-05-10T13:49:02.199Z,23.40
2023-05-10T13:51:30.286Z,23.40
2023-05-10T13:53:59.267Z,23.58
2023-05-10T13:57:24.044Z,23.85
2023-05-10T14:00:11.407Z,24.11
2023-05-10T14:02:39.524Z,24.26
2023-05-10T14:05:07.882Z,24.30
2023-05-10T14:07:35.837Z,24.26
2023-05-10T14:10:04.046Z,23.84
2023-05-10T14:12:32.017Z,23.52
2023-05-10T14:14:59.906Z,23.68
2023-05-10T14:17:28.018Z,24.04
2023-05-10T14:19:55.943Z,24.09
2023-05-10T14:22:23.879Z,24.26
2023-05-10T14:24:51.880Z,24.39
2023-05-10T14:27:20.556Z,24.60
2023-05-10T14:29:48.792Z,24.78
2023-05-10T14:32:16.839Z,24.82
2023-05-10T14:34:44.830Z,24.52
2023-05-10T14:37:16.248Z,24.19
2023-05-10T14:39:44.389Z,23.80
2023-05-10T14:42:13.056Z,23.92
2023-05-10T14:44:41.212Z,24.08
2023-05-10T14:47:10.589Z,24.13
2023-05-10T14:49:40.022Z,24.12
2023-05-10T14:53:04.947Z,24.35
2023-05-10T14:56:09.670Z,24.64
2023-05-10T14:58:37.673Z,24.68
2023-05-10T15:01:06.089Z,24.48
2023-05-10T15:03:34.547Z,24.30
2023-05-10T15:06:03.053Z,24.24
2023-05-10T15:08:31.059Z,24.13
2023-05-10T15:10:59.201Z,24.05
2023-05-10T15:13:27.279Z,24.01
2023-05-10T15:15:55.913Z,24.14
2023-05-10T15:18:27.079Z,24.36
2023-05-10T15:20:56.459Z,24.64
2023-05-10T15:23:24.506Z,24.93
2023-05-10T15:25:56.790Z,25.08
2023-05-10T15:28:25.017Z,24.96
2023-05-10T15:30:53.150Z,24.69
2023-05-10T15:33:21.298Z,24.58
2023-05-10T15:35:49.401Z,24.66
2023-05-10T15:38:17.380Z,24.86
2023-05-10T15:40:47.372Z,25.07
2023-05-10T15:43:16.360Z,24.88
2023-05-10T15:45:44.355Z,24.67
2023-05-10T15:48:12.337Z,24.48
2023-05-10T15:50:41.374Z,24.31
2023-05-10T15:53:09.253Z,24.17
2023-05-10T15:55:37.592Z,24.11
2023-05-10T15:58:05.542Z,24.16
2023-05-10T16:00:33.612Z,24.25
2023-05-10T16:03:02.076Z,24.38
2023-05-10T16:05:33.608Z,24.52
2023-05-10T16:08:02.480Z,24.57
2023-05-10T16:10:33.436Z,24.32
2023-05-10T16:13:02.447Z,24.19
2023-05-10T16:15:30.335Z,24.27
2023-05-10T16:17:58.463Z,24.16
2023-05-10T16:20:27.056Z,23.89
2023-05-10T16:22:55.884Z,23.80
2023-05-10T16:25:23.763Z,24.03
2023-05-10T16:27:51.622Z,24.11
2023-05-10T16:30:20.839Z,24.06
2023-05-10T16:32:50.489Z,23.86
2023-05-10T16:35:18.606Z,23.70
2023-05-10T16:37:47.172Z,23.47
2023-05-10T16:40:15.162Z,23.35
2023-05-10T16:42:43.051Z,23.21
2023-05-10T16:45:11.426Z,23.12
2023-05-10T16:47:40.817Z,23.24
2023-05-10T16:50:09.145Z,23.25
2023-05-10T16:52:37.251Z,23.26
2023-05-10T16:55:05.628Z,23.22
2023-05-10T16:57:33.503Z,22.89
2023-05-10T17:00:01.552Z,22.82
2023-05-10T17:02:29.642Z,22.68
2023-05-10T17:04:57.748Z,22.55
2023-05-10T17:07:26.377Z,22.41
2023-05-10T17:09:54.538Z,22.44
2023-05-10T17:12:22.420Z,22.31
2023-05-10T17:14:50.490Z,22.10
2023-05-10T17:17:18.437Z,22.03
2023-05-10T17:19:46.385Z,22.07
2023-05-10T17:22:14.430Z,21.92
2023-05-10T17:24:43.483Z,21.71
2023-05-10T17:27:11.461Z,21.57
2023-05-10T17:29:39.379Z,21.50
2023-05-10T17:32:09.343Z,21.40
2023-05-10T17:34:38.766Z,21.41
2023-05-10T17:37:09.446Z,21.16
2023-05-10T17:39:38.699Z,20.77
2023-05-10T17:42:08.386Z,20.37
2023-05-10T17:44:36.240Z,20.08
2023-05-10T17:47:04.313Z,19.72
2023-05-10T17:49:32.212Z,19.32
2023-05-10T17:52:00.214Z,18.94
2023-05-10T17:54:28.377Z,18.51
2023-05-10T17:56:58.139Z,18.16
2023-05-10T17:59:26.004Z,17.87
2023-05-10T18:01:54.052Z,17.67
2023-05-10T18:04:21.989Z,17.42
2023-05-10T18:06:49.908Z,17.18
2023-05-10T18:09:20.194Z,16.96
2023-05-10T18:11:48.059Z,16.73
2023-05-10T18:14:20.546Z,16.53
2023-05-10T18:16:56.557Z,16.26
2023-05-10T18:19:25.318Z,16.02
2023-05-10T18:21:53.277Z,15.78
2023-05-10T18:24:36.976Z,15.60
2023-05-10T18:27:08.826Z,15.49
2023-05-10T18:29:37.246Z,15.34
2023-05-10T18:32:05.801Z,15.19
2023-05-10T18:34:34.007Z,15.00
2023-05-10T18:37:07.435Z,14.83
2023-05-10T18:39:39.272Z,14.68
2023-05-10T18:42:09.069Z,14.55
2023-05-10T18:44:37.022Z,14.44
2023-05-10T18:47:05.556Z,14.32
2023-05-10T18:49:33.534Z,14.24
2023-05-10T18:52:01.517Z,14.14
2023-05-10T18:54:30.146Z,14.05
2023-05-10T18:56:58.982Z,13.96
2023-05-10T18:59:28.055Z,13.88
2023-05-10T19:01:57.457Z,13.79
2023-05-10T19:04:25.947Z,13.73
2023-05-10T19:06:53.999Z,13.66
2023-05-10T19:09:22.335Z,13.61
2023-05-10T19:11:51.585Z,13.56
2023-05-10T19:14:20.150Z,13.49
2023-05-10T19:16:51.024Z,13.43
2023-05-10T19:19:19.618Z,13.37
2023-05-10T19:21:48.360Z,13.32
2023-05-10T19:24:16.669Z,13.27
2023-05-10T19:26:46.909Z,13.22
2023-05-10T19:29:14.974Z,13.16
2023-05-10T19:31:44.162Z,13.13
2023-05-10T19:34:12.158Z,13.08
2023-05-10T19:36:40.151Z,13.04
2023-05-10T19:39:08.053Z,13.00
2023-05-10T19:41:36.252Z,12.97
2023-05-10T19:44:04.229Z,12.94
2023-05-10T19:46:32.396Z,12.91
2023-05-10T19:49:00.389Z,12.88
2023-05-10T19:51:28.340Z,12.87
2023-05-10T19:53:56.229Z,12.85
2023-05-10T19:56:24.186Z,12.83
2023-05-10T19:58:52.129Z,12.81
2023-05-10T20:01:20.025Z,12.79
2023-05-10T20:03:48.100Z,12.77
2023-05-10T20:06:16.163Z,12.74
2023-05-10T20:08:44.092Z,12.71
2023-05-10T20:11:12.207Z,12.69
2023-05-10T20:13:40.067Z,12.66
2023-05-10T20:16:08.202Z,12.64
2023-05-10T20:18:37.401Z,12.61
2023-05-10T20:21:05.334Z,12.58
2023-05-10T20:23:33.273Z,12.56
2023-05-10T20:26:01.208Z,12.53
2023-05-10T20:28:29.734Z,12.52
2023-05-10T20:30:57.953Z,12.50
2023-05-10T20:33:25.999Z,12.47
2023-05-10T20:35:53.907Z,12.43
2023-05-10T20:38:24.156Z,12.40
2023-05-10T20:40:52.087Z,12.35
2023-05-10T20:43:21.471Z,12.31
2023-05-10T20:45:49.576Z,12.27
2023-05-10T20:48:17.657Z,12.24
2023-05-10T20:50:45.761Z,12.20
2023-05-10T20:53:14.864Z,12.17
2023-05-10T20:55:42.840Z,12.13
2023-05-10T20:58:10.803Z,12.09
2023-05-10T21:00:38.818Z,12.05
2023-05-10T21:03:06.831Z,12.02
2023-05-10T21:05:34.958Z,11.98
2023-05-10T21:08:02.933Z,11.93
2023-05-10T21:10:30.955Z,11.89
2023-05-10T21:12:58.887Z,11.86
2023-05-10T21:15:27.844Z,11.81
2023-05-10T21:17:55.859Z,11.78
2023-05-10T21:20:23.904Z,11.74
2023-05-10T21:22:51.888Z,11.69
2023-05-10T21:25:19.826Z,11.66
2023-05-10T21:27:48.041Z,11.63
2023-05-10T21:30:16.379Z,11.57
2023-05-10T21:32:44.629Z,11.54
2023-05-10T21:35:12.520Z,11.49
2023-05-10T21:37:40.350Z,11.44
2023-05-10T21:40:08.715Z,11.39
2023-05-10T21:42:36.609Z,11.34
2023-05-10T21:45:04.905Z,11.29
2023-05-10T21:47:32.924Z,11.25
2023-05-10T21:50:00.844Z,11.20
2023-05-10T21:52:28.743Z,11.15
2023-05-10T21:54:56.644Z,11.09
2023-05-10T21:57:24.597Z,11.04
2023-05-10T21:59:52.449Z,11.00
2023-05-10T22:02:20.466Z,10.96
2023-05-10T22:04:48.386Z,10.92
2023-05-10T22:07:17.087Z,10.88
2023-05-10T22:09:45.006Z,10.83
2023-05-10T22:12:13.102Z,10.79
2023-05-10T22:14:41.115Z,10.74
2023-05-10T22:17:09.158Z,10.70
2023-05-10T22:19:37.101Z,10.67
2023-05-10T22:22:05.076Z,10.65
2023-05-10T22:24:32.976Z,10.62
2023-05-10T22:27:01.994Z,10.60
2023-05-10T22:29:30.517Z,10.58
2023-05-10T22:31:58.905Z,10.55
2023-05-10T22:34:26.836Z,10.53
2023-05-10T22:36:54.753Z,10.52
2023-05-10T22:39:23.636Z,10.49
2023-05-10T22:41:51.596Z,10.47
2023-05-10T22:44:19.447Z,10.45
2023-05-10T22:46:47.375Z,10.43
2023-05-10T22:49:15.296Z,10.41
2023-05-10T22:51:43.196Z,10.39
2023-05-10T22:54:11.180Z,10.37
2023-05-10T22:56:39.188Z,10.35
2023-05-10T22:59:07.120Z,10.33
2023-05-10T23:01:35.096Z,10.31
2023-05-10T23:04:02.981Z,10.29
2023-05-10T23:06:30.856Z,10.25
2023-05-10T23:08:59.243Z,10.23
2023-05-10T23:11:27.134Z,10.20
2023-05-10T23:13:55.234Z,10.17
2023-05-10T23:16:23.564Z,10.15
2023-05-10T23:18:51.556Z,10.12
2023-05-10T23:21:19.457Z,10.09
2023-05-10T23:23:47.413Z,10.07
2023-05-10T23:26:15.524Z,10.05
2023-05-10T23:28:43.438Z,10.03
2023-05-10T23:31:11.661Z,10.01
2023-05-10T23:33:39.549Z,9.99
2023-05-10T23:36:07.673Z,9.98
2023-05-10T23:38:35.608Z,9.96
2023-05-10T23:41:03.763Z,9.94
2023-05-10T23:43:31.678Z,9.91
2023-05-10T23:45:59.782Z,9.89
2023-05-10T23:48:27.745Z,9.87
2023-05-10T23:50:55.688Z,9.85
2023-05-10T23:53:23.550Z,9.83
2023-05-10T23:55:51.599Z,9.81
2023-05-10T23:58:19.453Z,9.78
